Latest Weather Observations for Port Hedland

IDW60801

Issued at 12:43 pm WST Saturday 22 February 2020 (issued every 10 minutes, with the page automatically refreshed every 10 minutes)

About weather observations | Map of weather stations | Latest weather observations for WA | Other Formats
Station Details ID: 004032 Name: PORT HEDLAND AIRPORT Lat: -20.37 Lon: 118.63 Height: 6.4 m
Data from the previous 72 hours. | See also: Recent months at Port Hedland
Date/Time
WST
Temp
°C
App
Temp
°C
Dew
Point
°C
Rel
Hum
%
Delta-T
°C
Wind Press
QNH
hPa
Press
MSL
hPa
Rain since
9am
mm
Dir  Spd
km/h
Gust
km/h
Spd
kts
Gust
kts
22/12:30pm 34.3 35.9 23.9 54 7.3 NW 22 30 12 16 1009.5 1009.4 0.0
22/12:00pm 34.4 36.8 24.3 55 7.1 NNW 19 26 10 14 1009.8 1009.7 0.0
22/11:30am 34.1 36.8 24.1 56 7.0 WNW 17 28 9 15 1010.1 1010.0 0.0
22/11:00am 33.7 37.3 24.3 58 6.6 WNW 13 24 7 13 1010.5 1010.4 0.0
22/10:30am 33.4 36.6 23.7 56 6.8 WNW 13 24 7 13 1011.0 1010.9 0.0
22/10:00am 31.8 34.3 23.1 60 6.0 WSW 15 19 8 10 1011.3 1011.2 0.0
22/09:30am 31.7 35.5 23.5 62 5.7 SW 9 15 5 8 1011.5 1011.4 0.0
22/09:00am 30.9 34.2 23.8 66 4.9 W 13 17 7 9 1011.6 1011.5 0.0
22/08:30am 30.6 33.9 24.5 70 4.3 WSW 15 22 8 12 1011.3 1011.2 0.0
22/08:00am 30.2 33.6 24.6 72 3.9 WSW 15 19 8 10 1011.4 1011.3 0.0
22/07:30am 29.3 32.3 24.6 76 3.3 WSW 17 20 9 11 1011.1 1011.0 0.0
22/07:00am 28.4 32.3 24.8 81 2.5 WSW 13 17 7 9 1010.8 1010.7 0.0
22/06:30am 27.2 32.6 25.2 89 1.4 SW 6 9 3 5 1010.6 1010.5 0.0
22/06:00am 27.0 31.7 25.0 89 1.4 WSW 9 13 5 7 1010.4 1010.3 0.0
22/05:30am 27.2 31.9 25.0 88 1.5 WSW 9 11 5 6 1010.2 1010.1 0.0
22/05:00am 27.5 31.9 25.1 87 1.7 SW 11 15 6 8 1009.9 1009.8 0.0
22/04:30am 27.8 32.2 25.0 85 2.0 SW 11 15 6 8 1009.8 1009.7 0.0
22/04:00am 28.0 33.0 25.4 86 1.8 SW 9 13 5 7 1010.0 1009.9 0.0
22/03:30am 28.0 33.4 25.4 86 1.8 WSW 7 11 4 6 1009.9 1009.8 0.0
22/03:00am 28.0 32.1 25.2 85 2.0 WSW 13 17 7 9 1010.0 1009.9 0.0
22/02:30am 27.9 32.6 24.9 84 2.1 SW 9 11 5 6 1010.2 1010.1 0.0
22/02:00am 27.9 32.6 24.9 84 2.1 W 9 9 5 5 1010.4 1010.3 0.0
22/01:30am 28.1 33.2 24.9 83 2.2 WNW 7 9 4 5 1010.6 1010.5 0.0
22/01:00am 28.4 33.3 25.2 83 2.2 WNW 9 11 5 6 1010.9 1010.8 0.0
22/12:30am 28.6 33.1 25.2 82 2.4 NW 11 13 6 7 1010.8 1010.7 0.0
22/12:00am 28.8 32.8 25.0 80 2.7 NW 13 17 7 9 1010.7 1010.6 0.0
 
Date/Time
WST
Temp
°C
App
Temp
°C
Dew
Point
°C
Rel
Hum
%
Delta-T
°C
Wind Press
QNH
hPa
Press
MSL
hPa
Rain since
9am
mm
Dir  Spd
km/h
Gust
km/h
Spd
kts
Gust
kts
21/11:30pm 29.2 32.6 25.2 79 2.8 NW 17 24 9 13 1010.8 1010.7 0.0
21/11:00pm 29.0 33.1 25.2 80 2.7 WNW 13 17 7 9 1010.9 1010.8 0.0
21/10:30pm 29.1 33.1 25.1 79 2.8 NW 13 17 7 9 1010.8 1010.7 0.0
21/10:00pm 29.3 33.1 25.3 79 2.8 NW 15 17 8 9 1010.9 1010.8 0.0
21/09:30pm 29.3 33.5 24.8 77 3.1 NW 11 15 6 8 1010.7 1010.6 0.0
21/09:00pm 29.4 32.8 24.7 76 3.3 NNW 15 19 8 10 1010.6 1010.5 0.0
21/08:30pm 29.4 32.9 25.4 79 2.8 NNW 17 20 9 11 1010.2 1010.1 0.0
21/08:00pm 29.5 32.7 25.0 77 3.2 NNW 17 22 9 12 1009.7 1009.6 0.0
21/07:30pm 29.6 31.9 24.5 74 3.6 N 20 26 11 14 1009.3 1009.2 0.0
21/07:00pm 29.8 32.0 24.9 75 3.4 N 22 30 12 16 1008.9 1008.8 0.0
21/06:30pm 30.1 32.3 24.9 73 3.6 N 22 28 12 15 1008.5 1008.4 0.0
21/06:00pm 30.6 33.6 25.2 73 3.8 N 19 26 10 14 1007.9 1007.8 0.0
21/05:30pm 31.1 33.9 25.2 71 4.2 N 20 28 11 15 1007.7 1007.6 0.0
21/05:00pm 31.6 34.0 25.2 69 4.5 N 22 30 12 16 1007.4 1007.3 0.0
21/04:30pm 31.6 33.2 24.5 66 5.0 N 24 32 13 17 1006.9 1006.8 0.0
21/04:00pm 32.0 34.2 24.8 65 5.1 N 22 32 12 17 1006.6 1006.5 0.0
21/03:30pm 32.3 34.1 24.9 65 5.2 N 24 35 13 19 1006.7 1006.6 0.0
21/03:00pm 33.1 34.7 25.1 63 5.7 N 26 35 14 19 1007.0 1006.9 0.0
21/02:30pm 33.2 35.0 25.5 64 5.5 NNE 26 33 14 18 1007.2 1007.1 0.0
21/02:00pm 33.1 34.0 24.0 59 6.4 N 26 32 14 17 1007.5 1007.4 0.0
21/01:30pm 33.6 34.6 24.2 58 6.6 NNE 26 33 14 18 1007.6 1007.5 0.0
21/01:00pm 33.8 35.6 24.9 59 6.3 NNE 24 33 13 18 1008.0 1007.9 0.0
21/12:30pm 34.1 36.4 24.4 57 6.8 NNE 20 30 11 16 1008.1 1008.0 0.0
21/12:00pm 33.9 36.4 24.5 58 6.6 NE 19 26 10 14 1008.5 1008.4 0.0
21/11:30am 34.2 35.2 24.2 56 7.0 NNE 26 33 14 18 1008.6 1008.5 0.0
21/11:00am 33.7 34.1 23.7 56 7.0 NNE 28 35 15 19 1008.9 1008.8 0.0
21/10:30am 34.6 36.0 23.6 52 7.7 ENE 22 30 12 16 1009.1 1009.0 0.0
21/10:00am 33.7 33.9 22.8 53 7.5 ENE 26 33 14 18 1009.3 1009.2 0.0
21/09:30am 33.8 33.7 23.5 55 7.2 E 30 41 16 22 1009.5 1009.4 0.0
21/09:00am 32.0 31.8 22.7 58 6.4 E 28 37 15 20 1009.6 1009.5 0.0
21/08:30am 31.6 32.1 22.6 59 6.2 E 24 32 13 17 1009.7 1009.6 0.0
21/08:00am 30.0 30.1 21.9 62 5.5 ESE 24 33 13 18 1009.7 1009.6 0.0
21/07:30am 29.1 29.7 22.1 66 4.7 ESE 22 33 12 18 1009.3 1009.2 0.0
21/07:00am 28.0 28.5 22.0 70 4.0 ESE 22 30 12 16 1009.0 1008.9 0.0
21/06:30am 26.9 27.6 22.3 76 3.1 ESE 22 30 12 16 1008.7 1008.6 0.0
21/06:00am 26.8 27.1 22.2 76 3.1 ESE 24 33 13 18 1008.3 1008.2 0.0
21/05:30am 27.2 28.2 22.2 74 3.4 ESE 20 26 11 14 1008.5 1008.4 0.0
21/05:00am 27.0 28.3 22.6 77 3.0 ESE 20 32 11 17 1008.3 1008.2 0.0
21/04:30am 26.6 28.1 22.7 79 2.6 SE 19 24 10 13 1008.1 1008.0 0.0
21/04:00am 26.3 27.7 21.9 77 2.9 SE 17 24 9 13 1008.0 1007.9 0.0
21/03:30am 26.4 28.6 21.8 76 3.1 SE 13 20 7 11 1008.2 1008.1 0.0
21/03:00am 26.6 26.8 21.4 73 3.5 SSE 22 30 12 16 1007.9 1007.8 0.0
21/02:30am 26.2 26.6 22.5 80 2.5 SSE 24 32 13 17 1007.8 1007.7 0.0
21/02:00am 26.8 27.3 22.6 78 2.8 SSE 24 35 13 19 1008.5 1008.4 0.0
21/01:30am 26.8 26.9 22.6 78 2.8 S 26 33 14 18 1008.3 1008.2 0.0
21/01:00am 26.9 26.0 22.9 79 2.7 S 32 39 17 21 1009.0 1008.9 0.0
21/12:51am 27.4 27.5 23.2 78 2.9 S 28 35 15 19 1008.9 1008.8 0.0
21/12:30am 29.4 33.4 25.6 80 2.7 SSW 15 17 8 9 1008.8 1008.7 0.0
21/12:00am 29.3 33.2 25.5 80 2.7 SW 15 19 8 10 1009.3 1009.2 0.0
 
Date/Time
WST
Temp
°C
App
Temp
°C
Dew
Point
°C
Rel
Hum
%
Delta-T
°C
Wind Press
QNH
hPa
Press
MSL
hPa
Rain since
9am
mm
Dir  Spd
km/h
Gust
km/h
Spd
kts
Gust
kts
20/11:30pm 29.3 32.8 25.5 80 2.7 WSW 17 20 9 11 1009.7 1009.6 0.0
20/11:00pm 29.4 33.0 25.6 80 2.7 WSW 17 20 9 11 1009.7 1009.6 0.0
20/10:30pm 29.6 32.7 25.4 78 3.0 WSW 19 26 10 14 1009.8 1009.7 0.0
20/10:00pm 29.8 33.3 25.5 78 3.0 W 17 24 9 13 1009.5 1009.4 0.0
20/09:30pm 29.9 33.4 25.4 77 3.2 WNW 17 22 9 12 1009.1 1009.0 0.0
20/09:00pm 29.8 32.6 25.3 77 3.2 WNW 20 26 11 14 1008.5 1008.4 0.0
20/08:30pm 30.0 32.6 25.5 77 3.2 WNW 22 28 12 15 1008.1 1008.0 0.0
20/08:00pm 30.2 33.4 25.9 78 3.1 NW 20 26 11 14 1007.5 1007.4 0.0
20/07:30pm 30.3 33.8 26.0 78 3.1 NW 19 24 10 13 1006.4 1006.3 0.0
20/07:00pm 30.5 33.7 25.8 76 3.3 NNW 20 24 11 13 1005.7 1005.6 0.0
20/06:30pm 30.8 33.4 26.1 76 3.4 NNW 24 30 13 16 1005.5 1005.4 0.0
20/06:00pm 31.5 33.9 25.8 72 4.1 N 24 30 13 16 1005.1 1005.0 0.0
20/05:30pm 32.2 33.9 25.3 67 4.9 N 26 33 14 18 1004.9 1004.8 0.0
20/05:00pm 32.7 33.9 24.5 62 5.8 N 26 35 14 19 1004.6 1004.5 0.0
20/04:30pm 33.7 34.6 24.6 59 6.4 N 28 35 15 19 1004.0 1003.9 0.0
20/04:00pm 34.6 35.0 24.5 55 7.1 N 30 37 16 20 1004.0 1003.9 0.0
20/03:30pm 34.7 35.0 24.3 54 7.3 N 30 35 16 19 1004.1 1004.0 0.0
20/03:00pm 34.1 33.4 23.5 54 7.4 N 33 39 18 21 1004.6 1004.5 0.0
20/02:30pm 35.6 36.8 23.9 51 8.2 NNW 24 30 13 16 1004.8 1004.7 0.0
20/02:00pm 35.5 37.1 23.8 50 8.2 NNW 22 30 12 16 1005.2 1005.1 0.0
20/01:30pm 35.4 36.5 23.7 50 8.2 N 24 32 13 17 1005.3 1005.2 0.0
20/01:00pm 36.6 38.2 24.5 50 8.6 NNW 24 32 13 17 1005.5 1005.4 0.0
20/12:30pm 36.9 38.4 23.0 44 9.7 NNE 20 28 11 15 1005.7 1005.6 0.0
20/12:00pm 36.4 38.0 23.3 47 9.2 N 20 28 11 15 1006.2 1006.1 0.0
20/11:30am 36.5 39.2 23.4 47 9.2 NNE 15 30 8 16 1006.5 1006.4 0.0
20/11:00am 36.5 39.3 22.3 44 9.8 N 11 17 6 9 1007.0 1006.9 0.0
20/10:30am 35.3 37.7 21.6 45 9.3 NNE 11 17 6 9 1007.5 1007.4 0.0
20/10:00am 35.1 38.0 21.7 45 9.2 SE 9 15 5 8 1007.8 1007.7 0.0
20/09:30am 34.1 36.7 21.2 47 8.7 SSW 9 13 5 7 1007.8 1007.7 0.0
20/09:00am 33.5 35.0 22.0 51 7.9 SW 17 22 9 12 1007.6 1007.5 0.0
20/08:30am 32.8 35.8 22.0 53 7.4 SSW 9 19 5 10 1007.7 1007.6 0.0
20/08:00am 31.9 34.6 22.9 59 6.2 SSE 13 17 7 9 1007.9 1007.8 0.0
20/07:30am 30.7 34.7 25.1 72 3.9 SE 13 15 7 8 1008.2 1008.1 0.0
20/07:00am 29.4 34.4 26.0 82 2.4 ESE 11 15 6 8 1008.4 1008.3 0.0
20/06:30am 28.1 33.3 26.3 90 1.3 E 11 15 6 8 1008.3 1008.2 0.0
20/06:00am 27.9 33.4 26.1 90 1.3 E 9 11 5 6 1007.9 1007.8 0.0
20/05:30am 28.0 34.1 26.2 90 1.3 ESE 6 7 3 4 1007.5 1007.4 0.0
20/05:00am 28.0 33.9 26.2 90 1.3 SE 7 7 4 4 1007.5 1007.4 0.0
20/04:30am 27.8 33.7 26.2 91 1.1 S 7 9 4 5 1007.1 1007.0 0.0
20/04:00am 27.7 33.5 26.1 91 1.1 SSW 7 9 4 5 1006.7 1006.6 0.0
20/03:30am 27.6 33.6 26.0 91 1.1 WSW 6 7 3 4 1006.4 1006.3 0.0
20/03:00am 27.7 33.4 25.9 90 1.3 WSW 7 9 4 5 1006.7 1006.6 0.0
20/02:30am 27.8 33.1 25.8 89 1.4 WSW 9 11 5 6 1006.9 1006.8 0.0
20/02:00am 28.3 32.9 25.9 87 1.7 WSW 13 15 7 8 1007.2 1007.1 0.0
20/01:30am 28.5 33.1 25.9 86 1.8 W 13 17 7 9 1007.4 1007.3 0.0
20/01:27am 28.6 33.2 26.0 86 1.8 W 13 17 7 9 1007.4 1007.3 0.0
20/01:00am 28.7 33.9 26.3 87 1.7 WNW 11 13 6 7 1007.3 1007.2 0.0
20/12:43am 28.8 33.9 26.2 86 1.8 WNW 11 15 6 8 1007.2 1007.1 0.0
20/12:30am 28.8 33.6 26.2 86 1.8 WNW 13 15 7 8 1007.2 1007.1 0.0
20/12:00am 29.0 33.8 26.2 85 2.0 WNW 13 17 7 9 1007.3 1007.2 0.0
 
Date/Time
WST
Temp
°C
App
Temp
°C
Dew
Point
°C
Rel
Hum
%
Delta-T
°C
Wind Press
QNH
hPa
Press
MSL
hPa
Rain since
9am
mm
Dir  Spd
km/h
Gust
km/h
Spd
kts
Gust
kts
19/11:30pm 29.2 34.0 26.2 84 2.1 NW 13 17 7 9 1007.4 1007.3 0.0
19/11:00pm 29.5 34.2 26.1 82 2.4 NW 13 17 7 9 1007.2 1007.1 0.0
19/10:30pm 29.6 33.8 26.0 81 2.6 NNW 15 20 8 11 1007.3 1007.2 0.0
19/10:00pm 29.6 34.1 25.8 80 2.7 N 13 17 7 9 1007.3 1007.2 0.0
19/09:30pm 29.9 34.3 25.6 78 3.0 N 13 19 7 10 1007.1 1007.0 0.0
19/09:00pm 30.0 34.1 25.7 78 3.1 N 15 20 8 11 1006.7 1006.6 0.0
19/08:30pm 30.0 33.9 25.5 77 3.2 N 15 20 8 11 1006.5 1006.4 0.0
19/08:00pm 30.1 34.3 25.4 76 3.3 NNW 13 17 7 9 1006.0 1005.9 0.0
19/07:30pm 30.3 33.9 25.6 76 3.3 NNW 17 22 9 12 1005.2 1005.1 0.0
19/07:00pm 30.7 34.1 24.6 70 4.3 NNW 15 22 8 12 1004.7 1004.6 0.0
19/06:30pm 31.1 33.8 25.0 70 4.3 NW 20 24 11 13 1004.0 1003.9 0.0
19/06:00pm 32.2 34.9 24.8 65 5.2 NW 19 24 10 13 1003.6 1003.5 0.0
19/05:30pm 33.6 36.0 24.2 58 6.6 NW 19 22 10 12 1003.2 1003.1 0.0
19/05:00pm 34.2 35.4 23.2 52 7.6 WNW 22 26 12 14 1003.3 1003.2 0.0
19/04:30pm 35.4 36.9 22.7 47 8.8 NNW 19 24 10 13 1003.5 1003.4 0.0
19/04:00pm 35.3 36.7 22.6 47 8.8 NNW 19 24 10 13 1003.8 1003.7 0.0
19/03:30pm 35.6 37.0 22.5 46 9.0 NNW 19 24 10 13 1004.2 1004.1 0.0
19/03:00pm 36.1 37.8 22.3 45 9.5 NW 17 22 9 12 1004.3 1004.2 0.0
19/02:30pm 36.2 38.1 22.7 45 9.3 NNW 17 22 9 12 1004.6 1004.5 0.0
19/02:00pm 36.3 37.1 22.5 45 9.6 N 22 30 12 16 1005.0 1004.9 0.0
19/01:30pm 35.6 36.4 21.8 44 9.4 NNE 20 26 11 14 1005.6 1005.5 0.0
19/01:00pm 36.5 38.6 19.4 36 11.4 NE 7 15 4 8 1006.0 1005.9 0.0

Other formats

Comma delimited format used in spreadsheet applications
http://www.bom.gov.au/fwo/IDW60801/IDW60801.94312.axf

JavaScript Object Notation format (JSON) in row-major order
http://www.bom.gov.au/fwo/IDW60801/IDW60801.94312.json

Data quality

Most of these data are generated automatically and are frequently updated. Quality checks on data are not normally performed. It is possible for incorrect values to appear. Refer to information at About Latest Weather Observations and please check the disclaimer before using these data.